CheckWX is a tool to help pilots better visualize weather data.  It is not intended as a substitute for an official pre-flight weather briefing.

14:01:01 UTC

CYQY TAF
Sydney / J.A. Douglas McCurdy Airport
Sydney, Canada
TAF CYQY 090538Z 0906/0918 18010G20KT P6SM FEW009 BKN060 OVC080 TEMPO 0906/0907 P6SM -SHRA BKN009 OVC020 FM090700 19012G22KT P6SM -RA OVC010 TEMPO 0907/0915 2SM -SHRA BR OVC005 FM091500 19012G22KT P6SM SCT006 OVC012 TEMPO 0915/0918 4SM BR BKN006 OVC012 RMK NXT FCST BY 091200Z

Jul-9@
06:00 UTC

Jul-9 @ 06:00 UTC

Jul-9@
07:00 UTC

Jul-9 @ 07:00 UTC

TAF CYQY 090538Z 0906/0918 18010G20KT P6SM FEW009 BKN060 OVC080

Expired

Wind
  • 180° at 10 KTS
  • {Gusting to 20 KTS
Cloud Levels
  • Few at 900' AGL
  • Broken at 6,000' AGL
  • Overcast at 8,000' AGL

Jul-9@
06:00 UTC

Jul-9 @ 06:00 UTC

Jul-9@
07:00 UTC

Jul-9 @ 07:00 UTC

TEMPO 0906/0907 P6SM -SHRA BKN009 OVC020

Expired

Conditions
Light Showers, Rain
Cloud Levels
  • Broken at 900' AGL
  • Overcast at 2,000' AGL

Jul-9@
07:00 UTC

Jul-9 @ 07:00 UTC

Jul-9@
15:00 UTC

Jul-9 @ 15:00 UTC

FM090700 19012G22KT P6SM -RA OVC010

From

From Standard forecast or significant change

Wind
  • 190° at 12 KTS
  • {Gusting to 22 KTS
Conditions
Light Rain
Cloud Levels
  • Overcast at 1,000' AGL

Jul-9@
07:00 UTC

Jul-9 @ 07:00 UTC

Jul-9@
15:00 UTC

Jul-9 @ 15:00 UTC

TEMPO 0907/0915 2SM -SHRA BR OVC005

Temporary

Temporary Changes expected for less than half the time period

Conditions
Light Showers, Rain, Mist
Cloud Levels
  • Overcast at 500' AGL

Jul-9@
15:00 UTC

Jul-9 @ 15:00 UTC

Jul-9@
18:00 UTC

Jul-9 @ 18:00 UTC

FM091500 19012G22KT P6SM SCT006 OVC012

From

From Standard forecast or significant change

Wind
  • 190° at 12 KTS
  • {Gusting to 22 KTS
Cloud Levels
  • Scattered at 600' AGL
  • Overcast at 1,200' AGL

Jul-9@
15:00 UTC

Jul-9 @ 15:00 UTC

Jul-9@
18:00 UTC

Jul-9 @ 18:00 UTC

TEMPO 0915/0918 4SM BR BKN006 OVC012 RMK NXT FCST BY 091200Z

Temporary

Temporary Changes expected for less than half the time period

Conditions
Mist
Cloud Levels
  • Broken at 600' AGL
  • Overcast at 1,200' AGL